Valley Mills, Texas
Current Conditions -  °F | °C
As of 1:55 PM on Sunday 23 Nov 2014 (Local Time) from KPWG Reporting Station
Clear Clear  
Wind Chill: 75°   Ceiling: Unl
Heat Index: 75°   Visibility: 10mi
Dew Point: 50°   Wind: 16mph
Humidity: 41%   Direction: 250°WSW
Pressure: 29.48"   Gusts: 25mph
Location:  31.66°N, 97.47°W
Report Text: KPWG 231955Z AUTO 25014G22KT 10SM CLR 24/10 A2948 RMK AO1
Loading
Personal Weather Stations






























Interactive Weather Map New forecast layout! Learn more

10-Day Weather Forecast

Advertisements
Track Severe Weather on mobile